Morgenster — PHMY — position and weather

sailwx.info

Track history (hours):
 
Tides and Currents Weather Stations Pressure Air Temp Water Temp Dewpoint Dewpoint Depression Visibility Wind Speed Wind Dir Waves Ship Positions

Morgenster

Last reported at 2014-Jul-21 13:20 UTC. Time now 2014-Jul-23 11:52 UTC.
Position N 59°17' E 004°53'.

Length 46 m; draft 2.4 m.

Type: Sailing vessel. MMSI: 245136000.

Date/timePositionNaut miles runAvg speedWind from/ knotsBaromVisibWave heightAir tempDewpointWater temp
2014-Jul-21 13:20N 59°17' E 004°53'4 4.9
2014-Jul-21 12:28N 59°14' E 004°58'4 3.8
2014-Jul-21 11:33N 59°11' E 005°01'5 5.0
2014-Jul-21 10:33N 59°06' E 005°05'4 3.8
2014-Jul-21 09:33N 59°03' E 005°09'4 3.7
2014-Jul-21 08:32N 58°59' E 005°11'4 4.4
2014-Jul-21 07:33N 58°55' E 005°15'5 4.8
2014-Jul-21 06:31N 58°51' E 005°19'23 7.7
2014-Jul-21 03:33N 58°30' E 005°37'9 8.8
2014-Jul-21 02:33N 58°24' E 005°49'8 7.9
2014-Jul-21 01:33N 58°19' E 006°01'7 7.4
2014-Jul-21 00:33N 58°14' E 006°11'127 7.9
2014-Jul-20 08:26N 57°51' E 010°07'5 6.1
2014-Jul-20 07:33N 57°50' E 010°17'6 6.2
2014-Jul-20 06:33N 57°48' E 010°28'6 6.1
2014-Jul-20 05:33N 57°47' E 010°39'5 5.1
2014-Jul-20 04:30N 57°42' E 010°45'7 6.4
2014-Jul-20 03:28N 57°36' E 010°43'6 6.9
2014-Jul-20 02:33N 57°29' E 010°43'16 6.5
2014-Jul-20 00:05N 57°13' E 010°42'15 5.7
2014-Jul-19 21:32N 57°01' E 010°28'5 5.0
2014-Jul-19 20:33N 56°59' E 010°20'6 6.1
2014-Jul-19 19:33N 57°01' E 010°09'6 6.3
2014-Jul-19 18:33N 57°05' E 010°01'3 3.0
2014-Jul-19 17:23N 57°03' E 009°56'0 0.0
2014-Jul-19 16:05N 57°03' E 009°56'0 0.0
2014-Jul-19 15:23N 57°03' E 009°56'0 0.0
2014-Jul-19 14:32N 57°03' E 009°56'0 0.0
2014-Jul-19 13:32N 57°03' E 009°56'0 0.0
2014-Jul-19 12:23N 57°03' E 009°56'0 0.0
2014-Jul-19 11:32N 57°03' E 009°56'0 0.0
2014-Jul-19 10:32N 57°03' E 009°56'0 0.0
2014-Jul-19 09:32N 57°03' E 009°56'0 0.0
2014-Jul-19 08:20N 57°03' E 009°56'0 0.0
2014-Jul-19 07:32N 57°03' E 009°56'0 0.0
2014-Jul-19 06:26N 57°03' E 009°56'0 0.0
2014-Jul-19 05:32N 57°03' E 009°56'0 0.0
2014-Jul-19 04:17N 57°03' E 009°56'0 0.0
2014-Jul-19 03:32N 57°03' E 009°56'0 0.0
2014-Jul-19 02:14N 57°03' E 009°56'0 0.0
2014-Jul-19 01:32N 57°03' E 009°56'0 0.0
2014-Jul-19 00:29N 57°03' E 009°56'0 0.0
2014-Jul-18 23:32N 57°03' E 009°56'0 0.0
2014-Jul-18 22:32N 57°03' E 009°56'0 0.0
2014-Jul-18 21:32N 57°03' E 009°56'0 0.0
2014-Jul-18 20:32N 57°03' E 009°56'0 0.0
2014-Jul-18 19:32N 57°03' E 009°56'0 0.0
2014-Jul-18 18:14N 57°03' E 009°56'0 0.0
2014-Jul-18 17:32N 57°03' E 009°56'0 0.0
2014-Jul-18 16:32N 57°03' E 009°56'0 0.0
2014-Jul-18 15:23N 57°03' E 009°56'0 0.0
2014-Jul-18 14:32N 57°03' E 009°56'0 0.0
2014-Jul-18 13:32N 57°03' E 009°56'0 0.0
2014-Jul-18 12:29N 57°03' E 009°56'0 0.0
2014-Jul-18 11:26N 57°03' E 009°56'0 0.0
2014-Jul-18 10:32N 57°03' E 009°56'0 0.0
2014-Jul-18 09:32N 57°03' E 009°56'0 0.0
2014-Jul-18 08:26N 57°03' E 009°56'0 0.0
2014-Jul-18 07:32N 57°03' E 009°56'0 0.0
2014-Jul-18 06:32N 57°03' E 009°56'0 0.0
2014-Jul-18 05:08N 57°03' E 009°56'0 0.0
2014-Jul-18 04:32N 57°03' E 009°56'0 0.0
2014-Jul-18 03:32N 57°03' E 009°56'0 0.0
2014-Jul-18 02:32N 57°03' E 009°56'0 0.0
2014-Jul-18 01:26N 57°03' E 009°56'0 0.0
2014-Jul-18 00:32N 57°03' E 009°56'0 0.0
2014-Jul-17 23:26N 57°03' E 009°56'0 0.0
2014-Jul-17 22:26N 57°03' E 009°56'0 0.0
2014-Jul-17 21:32N 57°03' E 009°56'0 0.0
2014-Jul-17 20:32N 57°03' E 009°56'0 0.0
2014-Jul-17 19:14N 57°03' E 009°56'0 0.0
2014-Jul-17 18:29N 57°03' E 009°56'0 0.0
2014-Jul-17 17:23N 57°03' E 009°56'3 3.1
2014-Jul-17 16:33N 57°05' E 009°59'6 5.4
2014-Jul-17 15:31N 57°02' E 010°07'39 1.5
2014-Jul-16 13:26N 57°35' E 010°46'6 6.4
2014-Jul-16 12:32N 57°41' E 010°46'7 7.4
2014-Jul-16 11:33N 57°48' E 010°43'62 6.2
2014-Jul-16 01:33N 58°49' E 010°23'4 4.0
2014-Jul-16 00:33N 58°53' E 010°27'4 4.1
2014-Jul-15 23:33N 58°57' E 010°29'4 4.2
2014-Jul-15 22:33N 59°01' E 010°32'4 3.6
2014-Jul-15 21:33N 59°03' E 010°37'5 5.1
2014-Jul-15 20:33N 59°01' E 010°46'4 3.8
2014-Jul-15 19:33N 59°01' E 010°54'4 3.4
2014-Jul-15 18:31N 59°04' E 010°58'5 4.8
2014-Jul-15 17:33N 59°08' E 010°58'4 1.4
2014-Jul-15 14:28N 59°13' E 010°56'0 0.0
2014-Jul-15 13:28N 59°13' E 010°56'0 0.0
2014-Jul-15 12:10N 59°13' E 010°56'0 0.0
2014-Jul-15 11:22N 59°13' E 010°56'0 0.0
2014-Jul-15 10:28N 59°13' E 010°56'0 0.0
2014-Jul-15 08:21N 59°13' E 010°56'0 0.0
2014-Jul-15 07:33N 59°13' E 010°56'0 0.0
2014-Jul-15 05:09N 59°13' E 010°56'0 0.0
2014-Jul-15 04:03N 59°13' E 010°56'0 0.0
2014-Jul-15 03:27N 59°13' E 010°56'0 0.0
2014-Jul-15 02:27N 59°13' E 010°56'0 0.0
2014-Jul-15 01:33N 59°13' E 010°56'0 0.0
2014-Jul-15 00:33N 59°13' E 010°56'0 0.0
2014-Jul-14 23:21N 59°13' E 010°56'0 0.0
2014-Jul-14 22:33N 59°13' E 010°56'0 0.0
2014-Jul-14 21:33N 59°13' E 010°56'0 0.0
2014-Jul-14 20:21N 59°13' E 010°56'0 0.0
2014-Jul-14 18:21N 59°13' E 010°56'0 0.0
2014-Jul-14 16:33N 59°13' E 010°56'0 0.0
2014-Jul-14 15:21N 59°13' E 010°56'0 0.0
2014-Jul-14 14:21N 59°13' E 010°56'0 0.0
2014-Jul-14 13:27N 59°13' E 010°56'0 0.0
2014-Jul-14 12:33N 59°13' E 010°56'0 0.0
2014-Jul-14 10:33N 59°13' E 010°56'0 0.0
2014-Jul-14 04:09N 59°13' E 010°56'0 0.0
2014-Jul-13 23:27N 59°13' E 010°56'0 0.0
2014-Jul-13 22:27N 59°13' E 010°56'0 0.0
2014-Jul-13 21:24N 59°13' E 010°56'0 0.0
2014-Jul-13 20:33N 59°13' E 010°56'0 0.0
2014-Jul-13 15:32N 59°13' E 010°56'0 0.0
2014-Jul-13 14:08N 59°13' E 010°56'0 0.0
2014-Jul-13 13:29N 59°13' E 010°56'0 0.0
2014-Jul-13 12:29N 59°13' E 010°56'0 0.0
2014-Jul-13 11:14N 59°13' E 010°56'0 0.0
2014-Jul-13 10:23N 59°13' E 010°56'0 0.0
2014-Jul-13 09:11N 59°13' E 010°56'0 0.0
2014-Jul-13 08:29N 59°13' E 010°56'0 0.0
2014-Jul-12 23:20N 59°13' E 010°56'0 0.0
2014-Jul-12 22:20N 59°13' E 010°56'0 0.0
2014-Jul-12 21:32N 59°13' E 010°56'0 0.0
2014-Jul-12 09:33N 59°13' E 010°56'1 0.6
2014-Jul-12 08:33N 59°13' E 010°55'3 3.0
2014-Jul-12 07:33N 59°10' E 010°52'4 4.4
2014-Jul-12 06:33N 59°08' E 010°45'5 5.1
2014-Jul-12 05:33N 59°04' E 010°38'6 5.7
2014-Jul-12 04:33N 59°00' E 010°31'  
Track history (hours):
 
Tides and Currents Weather Stations Pressure Air Temp Water Temp Dewpoint Dewpoint Depression Visibility Wind Speed Wind Dir Waves Ship Positions

Morgenster

Last reported at 2014-Jul-21 13:20 UTC. Time now 2014-Jul-23 11:52 UTC.
Position N 59°17' E 004°53'.

Length 46 m; draft 2.4 m.

Type: Sailing vessel. MMSI: 245136000.

Date/timePositionNaut miles runAvg speedWind from/ knotsBaromVisibWave heightAir tempDewpointWater temp
2014-Jul-21 13:20N 59°17' E 004°53'4 4.9
2014-Jul-21 12:28N 59°14' E 004°58'4 3.8
2014-Jul-21 11:33N 59°11' E 005°01'5 5.0
2014-Jul-21 10:33N 59°06' E 005°05'4 3.8
2014-Jul-21 09:33N 59°03' E 005°09'4 3.7
2014-Jul-21 08:32N 58°59' E 005°11'4 4.4
2014-Jul-21 07:33N 58°55' E 005°15'5 4.8
2014-Jul-21 06:31N 58°51' E 005°19'23 7.7
2014-Jul-21 03:33N 58°30' E 005°37'9 8.8
2014-Jul-21 02:33N 58°24' E 005°49'8 7.9
2014-Jul-21 01:33N 58°19' E 006°01'7 7.4
2014-Jul-21 00:33N 58°14' E 006°11'127 7.9
2014-Jul-20 08:26N 57°51' E 010°07'5 6.1
2014-Jul-20 07:33N 57°50' E 010°17'6 6.2
2014-Jul-20 06:33N 57°48' E 010°28'6 6.1
2014-Jul-20 05:33N 57°47' E 010°39'5 5.1
2014-Jul-20 04:30N 57°42' E 010°45'7 6.4
2014-Jul-20 03:28N 57°36' E 010°43'6 6.9
2014-Jul-20 02:33N 57°29' E 010°43'16 6.5
2014-Jul-20 00:05N 57°13' E 010°42'15 5.7
2014-Jul-19 21:32N 57°01' E 010°28'5 5.0
2014-Jul-19 20:33N 56°59' E 010°20'6 6.1
2014-Jul-19 19:33N 57°01' E 010°09'6 6.3
2014-Jul-19 18:33N 57°05' E 010°01'3 3.0
2014-Jul-19 17:23N 57°03' E 009°56'0 0.0
2014-Jul-19 16:05N 57°03' E 009°56'0 0.0
2014-Jul-19 15:23N 57°03' E 009°56'0 0.0
2014-Jul-19 14:32N 57°03' E 009°56'0 0.0
2014-Jul-19 13:32N 57°03' E 009°56'0 0.0
2014-Jul-19 12:23N 57°03' E 009°56'0 0.0
2014-Jul-19 11:32N 57°03' E 009°56'0 0.0
2014-Jul-19 10:32N 57°03' E 009°56'0 0.0
2014-Jul-19 09:32N 57°03' E 009°56'0 0.0
2014-Jul-19 08:20N 57°03' E 009°56'0 0.0
2014-Jul-19 07:32N 57°03' E 009°56'0 0.0
2014-Jul-19 06:26N 57°03' E 009°56'0 0.0
2014-Jul-19 05:32N 57°03' E 009°56'0 0.0
2014-Jul-19 04:17N 57°03' E 009°56'0 0.0
2014-Jul-19 03:32N 57°03' E 009°56'0 0.0
2014-Jul-19 02:14N 57°03' E 009°56'0 0.0
2014-Jul-19 01:32N 57°03' E 009°56'0 0.0
2014-Jul-19 00:29N 57°03' E 009°56'0 0.0
2014-Jul-18 23:32N 57°03' E 009°56'0 0.0
2014-Jul-18 22:32N 57°03' E 009°56'0 0.0
2014-Jul-18 21:32N 57°03' E 009°56'0 0.0
2014-Jul-18 20:32N 57°03' E 009°56'0 0.0
2014-Jul-18 19:32N 57°03' E 009°56'0 0.0
2014-Jul-18 18:14N 57°03' E 009°56'0 0.0
2014-Jul-18 17:32N 57°03' E 009°56'0 0.0
2014-Jul-18 16:32N 57°03' E 009°56'0 0.0
2014-Jul-18 15:23N 57°03' E 009°56'0 0.0
2014-Jul-18 14:32N 57°03' E 009°56'0 0.0
2014-Jul-18 13:32N 57°03' E 009°56'0 0.0
2014-Jul-18 12:29N 57°03' E 009°56'0 0.0
2014-Jul-18 11:26N 57°03' E 009°56'0 0.0
2014-Jul-18 10:32N 57°03' E 009°56'0 0.0
2014-Jul-18 09:32N 57°03' E 009°56'0 0.0
2014-Jul-18 08:26N 57°03' E 009°56'0 0.0
2014-Jul-18 07:32N 57°03' E 009°56'0 0.0
2014-Jul-18 06:32N 57°03' E 009°56'0 0.0
2014-Jul-18 05:08N 57°03' E 009°56'0 0.0
2014-Jul-18 04:32N 57°03' E 009°56'0 0.0
2014-Jul-18 03:32N 57°03' E 009°56'0 0.0
2014-Jul-18 02:32N 57°03' E 009°56'0 0.0
2014-Jul-18 01:26N 57°03' E 009°56'0 0.0
2014-Jul-18 00:32N 57°03' E 009°56'0 0.0
2014-Jul-17 23:26N 57°03' E 009°56'0 0.0
2014-Jul-17 22:26N 57°03' E 009°56'0 0.0
2014-Jul-17 21:32N 57°03' E 009°56'0 0.0
2014-Jul-17 20:32N 57°03' E 009°56'0 0.0
2014-Jul-17 19:14N 57°03' E 009°56'0 0.0
2014-Jul-17 18:29N 57°03' E 009°56'0 0.0
2014-Jul-17 17:23N 57°03' E 009°56'3 3.1
2014-Jul-17 16:33N 57°05' E 009°59'6 5.4
2014-Jul-17 15:31N 57°02' E 010°07'39 1.5
2014-Jul-16 13:26N 57°35' E 010°46'6 6.4
2014-Jul-16 12:32N 57°41' E 010°46'7 7.4
2014-Jul-16 11:33N 57°48' E 010°43'62 6.2
2014-Jul-16 01:33N 58°49' E 010°23'4 4.0
2014-Jul-16 00:33N 58°53' E 010°27'4 4.1
2014-Jul-15 23:33N 58°57' E 010°29'4 4.2
2014-Jul-15 22:33N 59°01' E 010°32'4 3.6
2014-Jul-15 21:33N 59°03' E 010°37'5 5.1
2014-Jul-15 20:33N 59°01' E 010°46'4 3.8
2014-Jul-15 19:33N 59°01' E 010°54'4 3.4
2014-Jul-15 18:31N 59°04' E 010°58'5 4.8
2014-Jul-15 17:33N 59°08' E 010°58'4 1.4
2014-Jul-15 14:28N 59°13' E 010°56'0 0.0
2014-Jul-15 13:28N 59°13' E 010°56'0 0.0
2014-Jul-15 12:10N 59°13' E 010°56'0 0.0
2014-Jul-15 11:22N 59°13' E 010°56'0 0.0
2014-Jul-15 10:28N 59°13' E 010°56'0 0.0
2014-Jul-15 08:21N 59°13' E 010°56'0 0.0
2014-Jul-15 07:33N 59°13' E 010°56'0 0.0
2014-Jul-15 05:09N 59°13' E 010°56'0 0.0
2014-Jul-15 04:03N 59°13' E 010°56'0 0.0
2014-Jul-15 03:27N 59°13' E 010°56'0 0.0
2014-Jul-15 02:27N 59°13' E 010°56'0 0.0
2014-Jul-15 01:33N 59°13' E 010°56'0 0.0
2014-Jul-15 00:33N 59°13' E 010°56'0 0.0
2014-Jul-14 23:21N 59°13' E 010°56'0 0.0
2014-Jul-14 22:33N 59°13' E 010°56'0 0.0
2014-Jul-14 21:33N 59°13' E 010°56'0 0.0
2014-Jul-14 20:21N 59°13' E 010°56'0 0.0
2014-Jul-14 18:21N 59°13' E 010°56'0 0.0
2014-Jul-14 16:33N 59°13' E 010°56'0 0.0
2014-Jul-14 15:21N 59°13' E 010°56'0 0.0
2014-Jul-14 14:21N 59°13' E 010°56'0 0.0
2014-Jul-14 13:27N 59°13' E 010°56'0 0.0
2014-Jul-14 12:33N 59°13' E 010°56'0 0.0
2014-Jul-14 10:33N 59°13' E 010°56'0 0.0
2014-Jul-14 04:09N 59°13' E 010°56'0 0.0
2014-Jul-13 23:27N 59°13' E 010°56'0 0.0
2014-Jul-13 22:27N 59°13' E 010°56'0 0.0
2014-Jul-13 21:24N 59°13' E 010°56'0 0.0
2014-Jul-13 20:33N 59°13' E 010°56'0 0.0
2014-Jul-13 15:32N 59°13' E 010°56'0 0.0
2014-Jul-13 14:08N 59°13' E 010°56'0 0.0
2014-Jul-13 13:29N 59°13' E 010°56'0 0.0
2014-Jul-13 12:29N 59°13' E 010°56'0 0.0
2014-Jul-13 11:14N 59°13' E 010°56'0 0.0
2014-Jul-13 10:23N 59°13' E 010°56'0 0.0
2014-Jul-13 09:11N 59°13' E 010°56'0 0.0
2014-Jul-13 08:29N 59°13' E 010°56'0 0.0
2014-Jul-12 23:20N 59°13' E 010°56'0 0.0
2014-Jul-12 22:20N 59°13' E 010°56'0 0.0
2014-Jul-12 21:32N 59°13' E 010°56'0 0.0
2014-Jul-12 09:33N 59°13' E 010°56'1 0.6
2014-Jul-12 08:33N 59°13' E 010°55'3 3.0
2014-Jul-12 07:33N 59°10' E 010°52'4 4.4
2014-Jul-12 06:33N 59°08' E 010°45'5 5.1
2014-Jul-12 05:33N 59°04' E 010°38'6 5.7
2014-Jul-12 04:33N 59°00' E 010°31'  

Dump ship's entire track history